Time;durP1;ratioP1;P1;durP2;ratioP2;P2;SDS_P1;SDS_P2;PMS_P1;PMS_P2;Temp;Humidity;BMP_temperature;BMP_pressure;BME280_temperature;BME280_humidity;BME280_pressure;Samples;Min_cycle;Max_cycle;Signal;HPM_P1;HPM_P2
2023/09/12 00:01:36;;;;;;;22.13;16.60;;;23.40;55.30;;;;;;5050784;28;20101;-68
2023/09/12 00:04:04;;;;;;;24.15;16.35;;;23.80;53.90;;;;;;5065059;28;20029;-69
2023/09/12 00:06:31;;;;;;;18.10;12.90;;;24.40;51.80;;;;;;5046337;28;20067;-68
2023/09/12 00:08:59;;;;;;;18.48;12.18;;;24.40;51.10;;;;;;5046538;28;20040;-67
2023/09/12 00:11:26;;;;;;;24.67;13.75;;;23.30;53.10;;;;;;5047338;28;20472;-68
2023/09/12 00:13:53;;;;;;;22.90;12.82;;;22.80;53.60;;;;;;5053582;28;20067;-68
2023/09/12 00:16:21;;;;;;;15.15;10.18;;;23.10;55.10;;;;;;5049090;28;20024;-68
2023/09/12 00:18:48;;;;;;;16.98;11.38;;;23.00;53.80;;;;;;5055234;28;20033;-67
2023/09/12 00:21:15;;;;;;;17.95;12.30;;;22.90;55.10;;;;;;5055179;28;20032;-67
2023/09/12 00:23:43;;;;;;;14.30;10.15;;;22.60;55.40;;;;;;5068095;28;20078;-67
2023/09/12 00:26:10;;;;;;;18.45;9.65;;;22.70;54.50;;;;;;5067127;28;20050;-67
2023/09/12 00:28:38;;;;;;;15.52;9.20;;;22.80;54.20;;;;;;5049565;28;20025;-67
2023/09/12 00:31:05;;;;;;;15.40;9.68;;;23.40;54.30;;;;;;5051116;28;20035;-67
2023/09/12 00:33:33;;;;;;;17.65;9.45;;;23.70;53.30;;;;;;5055374;28;20082;-67
2023/09/12 00:36:00;;;;;;;15.80;8.65;;;23.70;52.00;;;;;;5058660;28;20436;-68
2023/09/12 00:38:27;;;;;;;11.88;8.48;;;23.70;52.50;;;;;;5052816;28;20037;-68
2023/09/12 00:40:55;;;;;;;14.63;9.38;;;23.80;51.40;;;;;;5053965;28;20474;-67
2023/09/12 00:43:22;;;;;;;15.07;8.30;;;23.40;52.80;;;;;;5060575;28;20025;-68
2023/09/12 00:45:49;;;;;;;15.75;8.63;;;23.70;54.10;;;;;;5054348;28;20078;-67
2023/09/12 00:48:19;;;;;;;14.70;8.25;;;24.20;53.10;;;;;;5056437;28;20466;-68
2023/09/12 00:50:49;;;;;;;11.65;8.20;;;24.70;51.40;;;;;;5062131;28;20031;-67
2023/09/12 00:53:18;;;;;;;13.02;8.68;;;24.80;48.90;;;;;;5056559;28;20061;-68
2023/09/12 00:55:56;;;;;;;17.70;8.80;;;24.40;51.20;;;;;;5056039;28;20604;-68
2023/09/12 00:58:25;;;;;;;16.48;9.45;;;24.70;49.50;;;;;;5052676;28;20064;-68
2023/09/12 01:00:52;;;;;;;13.93;9.05;;;25.50;48.90;;;;;;5059446;28;20037;-69
2023/09/12 01:03:20;;;;;;;12.65;8.35;;;25.30;49.70;;;;;;5057535;28;20469;-68
2023/09/12 01:05:51;;;;;;;14.77;8.32;;;25.60;50.00;;;;;;5055426;28;20111;-68
2023/09/12 01:08:18;;;;;;;13.60;7.63;;;25.50;49.80;;;;;;5054692;28;20541;-68
2023/09/12 01:10:48;;;;;;;15.20;8.18;;;25.30;50.50;;;;;;5053924;28;20276;-67
2023/09/12 01:13:17;;;;;;;12.30;8.10;;;25.40;49.70;;;;;;5051791;28;20406;-68
2023/09/12 01:15:44;;;;;;;14.63;8.15;;;25.80;48.70;;;;;;5054690;28;20041;-68
2023/09/12 01:18:12;;;;;;;10.82;7.53;;;25.90;48.90;;;;;;5053571;28;20078;-67
2023/09/12 01:20:48;;;;;;;14.23;8.02;;;25.30;47.70;;;;;;5056540;28;20075;-69
2023/09/12 01:23:37;;;;;;;12.40;7.65;;;25.00;50.20;;;;;;5056327;28;20079;-68
2023/09/12 01:26:20;;;;;;;13.10;7.35;;;24.80;51.50;;;;;;5052305;28;20032;-68
2023/09/12 01:28:51;;;;;;;12.30;7.28;;;25.00;50.10;;;;;;5049863;28;20017;-67
2023/09/12 01:31:19;;;;;;;13.80;7.50;;;25.60;49.30;;;;;;5052255;28;20027;-67
2023/09/12 01:33:46;;;;;;;17.02;7.72;;;25.40;49.10;;;;;;5054102;28;20099;-68
2023/09/12 01:36:14;;;;;;;15.13;7.65;;;24.70;48.40;;;;;;5050512;28;20053;-67
2023/09/12 01:38:41;;;;;;;11.93;7.38;;;24.60;49.30;;;;;;5054691;28;20043;-68
2023/09/12 01:41:09;;;;;;;12.40;7.78;;;24.50;48.40;;;;;;5060288;28;20055;-68
2023/09/12 01:43:39;;;;;;;13.48;7.63;;;24.40;48.50;;;;;;5051129;28;20029;-68
2023/09/12 01:46:08;;;;;;;11.65;6.68;;;24.50;49.70;;;;;;5063133;28;20432;-68
2023/09/12 01:48:37;;;;;;;12.00;7.03;;;24.70;49.30;;;;;;5055955;28;20021;-68
2023/09/12 01:51:05;;;;;;;14.10;7.25;;;24.60;47.00;;;;;;5047072;28;20029;-68
2023/09/12 01:53:35;;;;;;;13.25;7.05;;;24.40;47.70;;;;;;5050272;28;20037;-68
2023/09/12 01:56:03;;;;;;;16.75;7.35;;;24.00;48.40;;;;;;5060958;28;20028;-68
2023/09/12 01:58:32;;;;;;;12.77;6.35;;;23.80;49.50;;;;;;5054947;28;20027;-68
2023/09/12 02:00:59;;;;;;;13.32;7.32;;;24.60;47.30;;;;;;5054713;28;20025;-68
2023/09/12 02:03:27;;;;;;;17.95;6.93;;;24.90;46.70;;;;;;5051214;28;20455;-68
2023/09/12 02:05:54;;;;;;;18.98;7.10;;;24.80;46.30;;;;;;5052845;28;20021;-68
2023/09/12 02:08:21;;;;;;;15.93;7.00;;;24.20;47.70;;;;;;5052335;28;20029;-68
2023/09/12 02:10:49;;;;;;;13.18;7.07;;;24.20;47.80;;;;;;5053633;28;20466;-68
2023/09/12 02:13:16;;;;;;;12.23;6.53;;;23.80;47.80;;;;;;5069329;28;20131;-70
2023/09/12 02:15:43;;;;;;;13.70;6.68;;;24.00;47.70;;;;;;5057407;28;20470;-69
2023/09/12 02:18:11;;;;;;;15.07;6.15;;;24.30;48.90;;;;;;5053930;28;20021;-69
2023/09/12 02:20:45;;;;;;;12.10;7.13;;;24.00;49.50;;;;;;5056695;28;20048;-69
2023/09/12 02:23:13;;;;;;;16.02;6.75;;;24.40;50.40;;;;;;5057079;28;20040;-69
2023/09/12 02:25:40;;;;;;;16.98;6.20;;;25.00;45.80;;;;;;5065365;28;20024;-68
2023/09/12 02:28:07;;;;;;;12.35;5.28;;;25.50;46.00;;;;;;5053849;28;20115;-69
2023/09/12 02:30:38;;;;;;;7.35;4.90;;;26.00;45.10;;;;;;5059516;28;20499;-69
2023/09/12 02:33:05;;;;;;;8.98;4.18;;;26.30;44.20;;;;;;5061330;28;20028;-68
2023/09/12 02:35:33;;;;;;;9.50;4.35;;;26.70;40.20;;;;;;5061475;28;20375;-69
2023/09/12 02:38:00;;;;;;;6.68;3.67;;;26.40;42.40;;;;;;5062789;28;20044;-68
2023/09/12 02:40:27;;;;;;;4.93;3.45;;;26.70;41.50;;;;;;5061778;28;20052;-68
2023/09/12 02:42:55;;;;;;;7.03;3.55;;;25.50;37.80;;;;;;5061471;28;20036;-69
2023/09/12 02:45:22;;;;;;;5.30;3.03;;;25.70;39.90;;;;;;5058258;28;20028;-67
2023/09/12 02:47:49;;;;;;;7.10;2.75;;;25.60;39.40;;;;;;5056522;28;20456;-70
2023/09/12 02:50:17;;;;;;;6.15;3.47;;;24.90;40.60;;;;;;5062979;28;20024;-69
2023/09/12 02:52:44;;;;;;;4.72;2.75;;;24.60;42.80;;;;;;5060966;28;20105;-69
2023/09/12 02:55:11;;;;;;;4.10;2.50;;;24.40;41.90;;;;;;5061248;28;20036;-68
2023/09/12 02:57:39;;;;;;;8.57;3.00;;;24.50;41.80;;;;;;5059344;28;20029;-69
2023/09/12 03:00:08;;;;;;;3.78;2.90;;;24.10;42.80;;;;;;5058367;28;20444;-69
2023/09/12 03:02:36;;;;;;;8.88;3.50;;;24.10;43.40;;;;;;5051737;28;20036;-68
2023/09/12 03:05:04;;;;;;;9.90;3.65;;;24.10;43.10;;;;;;5055508;28;20579;-68
2023/09/12 03:07:31;;;;;;;11.32;4.03;;;24.00;43.00;;;;;;5058190;28;20017;-69
2023/09/12 03:09:59;;;;;;;5.75;3.53;;;24.00;43.40;;;;;;5060561;28;20383;-68
2023/09/12 03:12:26;;;;;;;9.82;4.72;;;24.00;44.30;;;;;;5056036;28;20215;-69
2023/09/12 03:14:53;;;;;;;8.82;3.92;;;23.80;44.10;;;;;;5057710;28;20041;-68
2023/09/12 03:17:21;;;;;;;7.78;3.67;;;23.90;44.20;;;;;;5046954;28;20055;-69
2023/09/12 03:19:48;;;;;;;6.15;4.05;;;24.10;44.80;;;;;;5056962;28;20032;-68
2023/09/12 03:22:16;;;;;;;5.55;3.92;;;23.90;45.00;;;;;;5057226;28;20047;-69
2023/09/12 03:24:45;;;;;;;7.30;3.60;;;24.40;44.40;;;;;;5057458;28;20340;-69
2023/09/12 03:27:12;;;;;;;8.05;4.00;;;24.60;44.50;;;;;;5049415;28;20042;-69
2023/09/12 03:29:39;;;;;;;5.90;3.65;;;24.40;45.00;;;;;;5057626;28;20383;-69
2023/09/12 03:32:07;;;;;;;10.40;4.07;;;24.30;44.70;;;;;;5061563;28;20441;-70
2023/09/12 03:34:34;;;;;;;6.07;3.50;;;24.00;46.00;;;;;;5057631;28;20499;-68
2023/09/12 03:37:02;;;;;;;7.90;3.50;;;23.80;45.80;;;;;;5059646;28;20025;-69
2023/09/12 03:39:29;;;;;;;6.10;3.20;;;23.70;46.90;;;;;;5055703;28;20033;-68
2023/09/12 03:41:56;;;;;;;5.30;3.30;;;23.80;46.70;;;;;;5064314;28;20410;-68
2023/09/12 03:44:24;;;;;;;8.68;3.33;;;24.10;44.00;;;;;;5055234;28;20025;-68
2023/09/12 03:46:51;;;;;;;6.50;3.30;;;24.10;43.40;;;;;;5054792;28;20029;-69
2023/09/12 03:49:18;;;;;;;11.70;3.28;;;23.90;45.10;;;;;;5050796;28;20079;-69
2023/09/12 03:51:46;;;;;;;6.35;2.88;;;23.70;45.60;;;;;;5052116;28;20061;-68
2023/09/12 03:54:13;;;;;;;5.07;2.70;;;23.60;45.20;;;;;;5050088;28;20054;-69
2023/09/12 03:56:40;;;;;;;9.73;3.25;;;23.60;44.60;;;;;;5052875;28;20136;-70
2023/09/12 03:59:08;;;;;;;5.70;2.85;;;23.50;44.70;;;;;;5048853;28;20469;-69
2023/09/12 04:01:35;;;;;;;5.05;3.00;;;23.50;45.00;;;;;;5049867;28;20040;-69
2023/09/12 04:04:03;;;;;;;5.03;2.90;;;23.40;45.50;;;;;;5051724;28;20389;-69
2023/09/12 04:06:30;;;;;;;7.70;3.08;;;23.40;45.30;;;;;;5063614;28;20436;-69
2023/09/12 04:08:57;;;;;;;5.32;2.75;;;23.20;46.30;;;;;;5054610;28;20116;-69
2023/09/12 04:11:25;;;;;;;5.20;3.10;;;23.30;46.20;;;;;;5052686;28;20049;-69
2023/09/12 04:13:52;;;;;;;8.00;2.70;;;23.10;45.70;;;;;;5048441;28;20063;-69
2023/09/12 04:16:19;;;;;;;6.43;2.65;;;23.00;45.70;;;;;;5052720;28;20024;-69
2023/09/12 04:18:48;;;;;;;8.48;2.80;;;23.00;46.60;;;;;;5046834;28;20064;-68
2023/09/12 04:21:15;;;;;;;7.57;2.95;;;22.90;46.00;;;;;;5046882;28;20025;-69
2023/09/12 04:23:43;;;;;;;5.82;2.50;;;22.70;47.20;;;;;;5052178;28;20044;-69
2023/09/12 04:26:10;;;;;;;4.25;2.53;;;22.60;46.20;;;;;;5059194;28;20025;-69
2023/09/12 04:28:37;;;;;;;5.90;2.50;;;22.40;46.60;;;;;;5058858;28;20120;-69
2023/09/12 04:31:05;;;;;;;4.13;2.63;;;22.40;46.70;;;;;;5058651;28;20024;-68
2023/09/12 04:33:32;;;;;;;6.57;2.72;;;22.70;46.90;;;;;;5056011;28;20104;-70
2023/09/12 04:36:02;;;;;;;5.00;2.55;;;22.70;46.90;;;;;;5058011;28;20439;-68
2023/09/12 04:38:29;;;;;;;4.70;2.58;;;22.80;47.10;;;;;;5055357;28;20021;-69
2023/09/12 04:41:02;;;;;;;5.65;2.90;;;22.60;47.70;;;;;;5061376;28;20030;-70
2023/09/12 04:43:30;;;;;;;7.05;2.80;;;22.40;48.00;;;;;;5057826;28;20462;-68
2023/09/12 04:45:57;;;;;;;6.05;3.05;;;22.60;47.90;;;;;;5057665;28;20110;-69
2023/09/12 04:48:24;;;;;;;7.00;2.90;;;22.80;47.00;;;;;;5059626;28;20025;-68
2023/09/12 04:50:52;;;;;;;5.55;2.83;;;22.70;47.90;;;;;;5057689;28;20072;-68
2023/09/12 04:53:19;;;;;;;4.93;2.53;;;22.60;48.70;;;;;;5062380;28;20036;-69
2023/09/12 04:55:46;;;;;;;8.30;3.15;;;22.90;47.50;;;;;;5061134;28;20033;-68
2023/09/12 04:58:14;;;;;;;11.07;3.20;;;23.10;46.80;;;;;;5053927;28;20021;-69
2023/09/12 05:00:41;;;;;;;6.10;3.03;;;22.90;47.10;;;;;;5054030;28;20424;-68
2023/09/12 05:03:08;;;;;;;5.45;2.72;;;22.80;47.20;;;;;;5055994;28;20028;-69
2023/09/12 05:05:36;;;;;;;9.48;3.15;;;22.70;47.40;;;;;;5057989;28;20376;-70
2023/09/12 05:08:04;;;;;;;7.40;2.80;;;22.80;48.40;;;;;;5052710;28;20039;-69
2023/09/12 05:10:32;;;;;;;5.97;3.15;;;22.70;48.50;;;;;;5059787;28;20025;-68
2023/09/12 05:12:59;;;;;;;6.78;3.10;;;22.80;47.80;;;;;;5050251;28;20025;-67
2023/09/12 05:15:27;;;;;;;4.97;2.90;;;22.60;49.00;;;;;;5051668;28;20055;-67
2023/09/12 05:17:54;;;;;;;5.82;2.65;;;22.70;47.70;;;;;;5051609;28;20029;-68
2023/09/12 05:20:21;;;;;;;6.40;2.90;;;22.70;47.30;;;;;;5054696;28;20051;-67
2023/09/12 05:22:49;;;;;;;5.32;2.70;;;23.00;47.10;;;;;;5046321;28;20049;-67
2023/09/12 05:25:16;;;;;;;6.32;3.25;;;23.10;47.10;;;;;;5051548;28;20064;-67
2023/09/12 05:27:43;;;;;;;5.20;2.58;;;23.10;45.50;;;;;;5056288;28;20036;-67
2023/09/12 05:30:11;;;;;;;7.43;3.00;;;22.90;46.10;;;;;;5054723;28;20033;-68
2023/09/12 05:32:39;;;;;;;7.72;2.78;;;22.80;45.90;;;;;;5051463;28;20462;-68
2023/09/12 05:35:06;;;;;;;4.63;2.70;;;22.70;45.90;;;;;;5055195;28;20084;-68
2023/09/12 05:37:34;;;;;;;6.47;2.92;;;22.60;45.80;;;;;;5050175;28;20028;-68
2023/09/12 05:40:01;;;;;;;4.65;2.92;;;22.50;46.10;;;;;;5049775;28;20056;-67
2023/09/12 05:42:29;;;;;;;6.70;3.20;;;22.30;46.20;;;;;;5051231;28;20025;-68
2023/09/12 05:44:56;;;;;;;6.25;3.10;;;22.40;46.80;;;;;;5047911;28;20029;-67
2023/09/12 05:47:24;;;;;;;5.18;2.72;;;22.30;46.50;;;;;;5063738;28;20029;-68
2023/09/12 05:49:51;;;;;;;6.55;2.97;;;22.20;46.60;;;;;;5052911;28;20454;-68
2023/09/12 05:52:18;;;;;;;4.75;3.00;;;22.30;46.80;;;;;;5051581;28;20035;-67
2023/09/12 05:54:46;;;;;;;8.15;3.50;;;22.30;47.00;;;;;;5058006;28;20509;-67
2023/09/12 05:57:13;;;;;;;4.90;2.97;;;22.40;46.90;;;;;;5055141;28;20055;-67
2023/09/12 05:59:40;;;;;;;7.18;3.15;;;22.50;46.60;;;;;;5051477;28;20402;-68
2023/09/12 06:02:09;;;;;;;8.73;2.78;;;22.50;46.70;;;;;;5051696;28;20108;-67
2023/09/12 06:04:37;;;;;;;4.97;2.72;;;22.70;47.20;;;;;;5052708;28;20040;-69
2023/09/12 06:07:04;;;;;;;8.35;3.20;;;22.90;46.80;;;;;;5051968;28;20033;-67
2023/09/12 06:09:32;;;;;;;7.30;2.97;;;23.10;46.20;;;;;;5052693;28;20120;-67
2023/09/12 06:11:59;;;;;;;7.28;2.85;;;23.00;45.70;;;;;;5060812;28;20021;-68
2023/09/12 06:14:27;;;;;;;5.45;2.63;;;23.00;45.70;;;;;;5048316;28;20041;-69
2023/09/12 06:16:54;;;;;;;7.38;2.88;;;22.90;46.10;;;;;;5049940;28;20027;-69
2023/09/12 06:19:21;;;;;;;7.25;2.75;;;22.70;47.50;;;;;;5062184;28;20044;-69
2023/09/12 06:21:49;;;;;;;7.90;2.95;;;22.90;48.10;;;;;;5057273;28;20029;-69
2023/09/12 06:24:23;;;;;;;7.57;3.47;;;23.00;46.80;;;;;;5051126;28;20077;-68
2023/09/12 06:26:51;;;;;;;8.88;2.70;;;23.10;46.30;;;;;;5052908;28;20059;-68
2023/09/12 06:29:18;;;;;;;10.90;2.63;;;23.00;45.70;;;;;;5051503;28;20040;-69
2023/09/12 06:31:46;;;;;;;7.35;3.00;;;23.00;45.60;;;;;;5051937;28;20037;-69
2023/09/12 06:34:13;;;;;;;8.93;3.25;;;22.80;45.40;;;;;;5039790;28;20049;-68
2023/09/12 06:36:44;;;;;;;7.88;3.22;;;22.80;44.90;;;;;;5039351;28;20429;-68
2023/09/12 06:39:12;;;;;;;4.60;2.55;;;22.40;46.00;;;;;;5043588;28;20895;-70
2023/09/12 06:41:39;;;;;;;9.85;3.40;;;22.10;46.60;;;;;;5038591;28;20083;-68
2023/09/12 06:44:07;;;;;;;5.97;2.97;;;21.80;46.90;;;;;;5040984;28;20028;-69
2023/09/12 06:46:38;;;;;;;8.23;3.20;;;21.70;47.40;;;;;;5043295;28;20037;-68
2023/09/12 06:49:05;;;;;;;8.30;3.00;;;21.60;47.80;;;;;;5046722;28;20025;-68
2023/09/12 06:51:32;;;;;;;11.82;3.20;;;21.70;48.20;;;;;;5045050;28;20047;-70
2023/09/12 06:54:00;;;;;;;8.60;3.13;;;21.70;47.80;;;;;;5042612;28;20044;-69
2023/09/12 06:56:27;;;;;;;9.00;3.10;;;21.70;48.00;;;;;;5042875;28;20029;-68
2023/09/12 06:58:55;;;;;;;6.07;3.05;;;21.70;48.50;;;;;;5042931;28;20036;-69
2023/09/12 07:01:22;;;;;;;8.38;3.25;;;21.60;48.60;;;;;;5047451;28;20477;-68
2023/09/12 07:03:53;;;;;;;5.95;2.67;;;21.50;48.50;;;;;;5048595;28;20131;-68
2023/09/12 07:06:21;;;;;;;6.55;3.03;;;21.40;48.80;;;;;;5058683;28;20474;-68
2023/09/12 07:08:48;;;;;;;6.75;3.03;;;21.30;48.90;;;;;;5066581;28;20020;-69
2023/09/12 07:11:15;;;;;;;5.63;2.67;;;21.10;49.40;;;;;;5054607;28;20055;-68
2023/09/12 07:13:43;;;;;;;7.32;2.58;;;21.00;49.50;;;;;;5051624;28;20016;-67
2023/09/12 07:16:10;;;;;;;4.88;2.60;;;20.90;49.40;;;;;;5056420;28;20489;-69
2023/09/12 07:18:38;;;;;;;5.55;2.88;;;20.70;49.20;;;;;;5063864;28;20052;-69
2023/09/12 07:21:06;;;;;;;9.10;2.75;;;20.50;49.30;;;;;;5060396;28;20025;-68
2023/09/12 07:23:34;;;;;;;8.30;4.25;;;20.50;50.00;;;;;;5049944;28;20045;-68
2023/09/12 07:26:02;;;;;;;6.15;2.97;;;20.30;50.90;;;;;;5049576;28;20083;-68
2023/09/12 07:28:31;;;;;;;10.00;3.95;;;20.40;51.20;;;;;;5051419;28;20083;-69
2023/09/12 07:30:59;;;;;;;12.57;5.40;;;20.50;52.80;;;;;;5048091;28;20415;-69
2023/09/12 07:33:26;;;;;;;14.20;5.45;;;20.50;54.30;;;;;;5054102;28;20123;-69
2023/09/12 07:35:54;;;;;;;18.58;6.50;;;20.40;55.40;;;;;;5052259;28;20436;-69
2023/09/12 07:38:22;;;;;;;26.48;7.55;;;20.40;57.00;;;;;;5065686;28;20035;-68
2023/09/12 07:40:50;;;;;;;32.65;9.55;;;20.20;58.00;;;;;;5068637;28;20036;-68
2023/09/12 07:43:17;;;;;;;28.23;9.02;;;20.20;59.70;;;;;;5054313;28;20388;-68
2023/09/12 07:45:45;;;;;;;30.13;8.98;;;20.10;60.50;;;;;;5054514;28;20050;-68
2023/09/12 07:48:12;;;;;;;33.13;9.68;;;19.90;61.50;;;;;;5065797;28;20473;-68
2023/09/12 07:50:40;;;;;;;33.28;10.40;;;19.80;62.50;;;;;;5056127;28;20071;-68
2023/09/12 07:53:07;;;;;;;40.15;10.75;;;19.70;63.40;;;;;;5056110;28;20033;-68
2023/09/12 07:55:56;;;;;;;43.38;11.18;;;19.70;64.00;;;;;;5054915;28;20039;-68
2023/09/12 07:58:23;;;;;;;46.58;11.25;;;19.50;64.80;;;;;;5054902;28;20169;-67
2023/09/12 08:00:51;;;;;;;30.33;11.00;;;19.40;65.80;;;;;;5058872;28;20056;-67
2023/09/12 08:03:18;;;;;;;35.58;11.23;;;19.30;66.80;;;;;;5053007;28;20032;-68
2023/09/12 08:05:56;;;;;;;39.03;11.57;;;19.20;66.60;;;;;;5049874;28;20032;-67
2023/09/12 08:08:24;;;;;;;40.17;12.15;;;19.30;67.30;;;;;;5052527;28;20117;-68
2023/09/12 08:10:51;;;;;;;45.25;11.82;;;19.10;67.70;;;;;;5052149;28;20033;-68
2023/09/12 08:13:18;;;;;;;40.90;11.60;;;19.00;68.40;;;;;;5056166;28;20032;-67
2023/09/12 08:15:46;;;;;;;32.65;11.60;;;18.80;69.30;;;;;;5051998;28;20033;-67
2023/09/12 08:18:14;;;;;;;38.50;11.77;;;18.80;70.00;;;;;;5055859;28;20053;-67
2023/09/12 08:20:41;;;;;;;26.75;11.45;;;18.70;70.30;;;;;;5058387;28;20143;-67
2023/09/12 08:23:09;;;;;;;39.35;13.02;;;18.70;70.80;;;;;;5055070;28;20342;-67
2023/09/12 08:25:36;;;;;;;32.28;11.75;;;18.60;71.40;;;;;;5048784;28;20021;-67
2023/09/12 08:28:03;;;;;;;31.05;11.30;;;18.50;71.70;;;;;;5055724;28;20622;-67
2023/09/12 08:30:31;;;;;;;36.38;12.85;;;18.50;71.80;;;;;;5058152;28;20052;-68
2023/09/12 08:32:58;;;;;;;27.55;11.52;;;18.30;72.70;;;;;;5052834;28;20021;-66
2023/09/12 08:35:26;;;;;;;32.80;11.30;;;18.30;73.00;;;;;;5058990;28;20028;-67
2023/09/12 08:37:53;;;;;;;38.60;11.68;;;18.20;73.20;;;;;;5053755;28;20116;-68
2023/09/12 08:40:21;;;;;;;26.23;10.52;;;18.00;73.70;;;;;;5051186;28;20461;-69
2023/09/12 08:42:49;;;;;;;24.20;11.18;;;18.00;74.10;;;;;;5048713;28;20489;-68
2023/09/12 08:45:18;;;;;;;20.77;9.93;;;17.90;74.20;;;;;;5065972;28;20024;-68
2023/09/12 08:47:53;;;;;;;23.10;10.60;;;17.90;74.60;;;;;;5054636;28;20433;-68
2023/09/12 08:50:23;;;;;;;16.50;9.50;;;18.00;74.90;;;;;;5045499;28;20029;-68
2023/09/12 08:52:50;;;;;;;22.75;11.60;;;17.80;75.30;;;;;;5043323;28;20668;-69
2023/09/12 08:55:18;;;;;;;19.75;11.07;;;17.70;75.90;;;;;;5040853;28;20033;-68
2023/09/12 08:57:51;;;;;;;22.73;12.38;;;17.50;76.40;;;;;;5038540;28;20115;-67
2023/09/12 09:00:20;;;;;;;25.42;13.13;;;17.40;77.20;;;;;;5036010;28;20052;-68
2023/09/12 09:02:47;;;;;;;22.75;11.18;;;17.30;77.60;;;;;;5034324;28;21092;-68
2023/09/12 09:05:15;;;;;;;19.20;11.07;;;17.30;78.10;;;;;;5036958;28;20558;-68
2023/09/12 09:07:44;;;;;;;17.70;10.00;;;17.20;78.90;;;;;;5046400;28;20029;-68
2023/09/12 09:10:17;;;;;;;16.60;9.52;;;17.10;79.50;;;;;;5045577;28;20035;-71
2023/09/12 09:12:48;;;;;;;19.02;10.55;;;17.00;80.20;;;;;;5040708;28;20024;-68
2023/09/12 09:15:27;;;;;;;18.30;10.82;;;17.00;80.50;;;;;;5036622;28;20160;-68
2023/09/12 09:17:56;;;;;;;29.17;14.38;;;17.00;80.70;;;;;;5043519;28;20029;-69
2023/09/12 09:20:28;;;;;;;22.08;12.48;;;16.90;81.20;;;;;;5048353;28;20025;-68
2023/09/12 09:22:59;;;;;;;24.58;13.90;;;16.70;82.00;;;;;;5038338;28;20475;-67
2023/09/12 09:25:27;;;;;;;26.75;14.90;;;16.80;81.90;;;;;;5044145;28;20127;-67
2023/09/12 09:27:57;;;;;;;25.25;14.93;;;16.60;82.60;;;;;;5045349;28;20590;-68
2023/09/12 09:30:45;;;;;;;31.15;16.90;;;16.50;83.40;;;;;;5043469;28;20037;-68
2023/09/12 09:33:12;;;;;;;;;;;16.40;84.00;;;;;;5041643;28;20540;-68
2023/09/12 09:35:42;;;;;;;30.90;18.90;;;16.20;84.50;;;;;;5042988;28;19917;-67
2023/09/12 09:38:16;;;;;;;33.42;19.52;;;16.20;85.40;;;;;;5046729;28;20469;-67
2023/09/12 09:40:44;;;;;;;34.20;20.80;;;16.10;85.70;;;;;;5046279;28;20379;-68
2023/09/12 09:43:15;;;;;;;33.03;19.40;;;16.20;85.90;;;;;;5051885;28;20025;-67
2023/09/12 09:45:46;;;;;;;38.03;19.42;;;16.20;86.40;;;;;;5048181;28;20052;-68
2023/09/12 09:48:28;;;;;;;35.50;20.35;;;16.10;85.90;;;;;;5045315;28;20565;-67
2023/09/12 09:51:04;;;;;;;36.97;21.48;;;16.00;86.60;;;;;;5064205;28;20060;-68
2023/09/12 09:53:33;;;;;;;40.97;22.58;;;16.10;86.90;;;;;;5045536;28;20033;-68
2023/09/12 09:56:18;;;;;;;31.55;18.65;;;16.10;87.20;;;;;;5045046;28;20460;-68
2023/09/12 09:58:48;;;;;;;32.72;20.08;;;15.80;86.90;;;;;;5050017;28;20048;-68
2023/09/12 10:01:21;;;;;;;32.78;20.63;;;15.70;87.70;;;;;;5043564;28;20978;-69
2023/09/12 10:03:50;;;;;;;42.17;21.40;;;15.70;88.30;;;;;;5050757;28;20028;-68
2023/09/12 10:06:19;;;;;;;33.38;20.08;;;15.50;88.30;;;;;;5051366;28;20025;-68
2023/09/12 10:08:51;;;;;;;34.38;20.95;;;15.50;88.60;;;;;;5050313;28;20037;-68
2023/09/12 10:11:22;;;;;;;40.83;24.77;;;15.40;88.90;;;;;;5042889;28;20033;-67
2023/09/12 10:14:01;;;;;;;44.17;24.88;;;15.60;89.40;;;;;;5040139;28;20497;-68
2023/09/12 10:16:34;;;;;;;43.53;25.23;;;15.50;89.30;;;;;;5044101;28;20021;-68
2023/09/12 10:19:06;;;;;;;41.95;25.92;;;15.40;89.80;;;;;;5047460;28;20417;-68
2023/09/12 10:21:35;;;;;;;41.42;25.38;;;15.30;90.10;;;;;;5050879;28;20397;-68
2023/09/12 10:24:06;;;;;;;52.22;30.08;;;15.20;90.70;;;;;;5043165;28;20033;-68
2023/09/12 10:26:35;;;;;;;47.10;26.77;;;15.10;90.40;;;;;;5046734;28;20035;-69
2023/09/12 10:29:04;;;;;;;45.55;27.77;;;15.10;90.70;;;;;;5047501;28;20025;-68
2023/09/12 10:31:32;;;;;;;48.45;28.73;;;15.10;90.80;;;;;;5045471;28;20029;-68
2023/09/12 10:34:00;;;;;;;53.30;32.95;;;15.00;90.80;;;;;;5040824;28;20067;-67
2023/09/12 10:36:28;;;;;;;63.17;36.17;;;15.00;91.00;;;;;;5043529;28;20100;-69
2023/09/12 10:38:57;;;;;;;60.45;34.13;;;14.90;91.00;;;;;;5041947;28;20033;-67
2023/09/12 10:41:25;;;;;;;56.50;32.28;;;14.80;91.00;;;;;;5046622;28;20100;-67
2023/09/12 10:43:55;;;;;;;58.38;34.10;;;14.70;91.10;;;;;;5053929;28;20501;-67
2023/09/12 10:46:23;;;;;;;62.28;34.92;;;14.60;91.30;;;;;;5046010;28;20028;-68
2023/09/12 10:48:52;;;;;;;64.07;36.63;;;14.60;91.40;;;;;;5043829;28;21904;-66
2023/09/12 10:51:21;;;;;;;53.30;33.70;;;14.60;91.90;;;;;;5049027;28;20513;-67
2023/09/12 10:53:49;;;;;;;53.60;31.58;;;14.70;91.70;;;;;;5050418;28;20036;-67
2023/09/12 10:56:21;;;;;;;40.63;24.35;;;14.70;91.30;;;;;;5051160;28;20107;-67
2023/09/12 10:59:04;;;;;;;43.28;23.15;;;14.60;91.30;;;;;;5048561;28;20029;-68
2023/09/12 11:01:36;;;;;;;38.05;21.55;;;14.50;91.50;;;;;;5045519;28;20036;-67
2023/09/12 11:04:25;;;;;;;41.13;22.65;;;14.40;91.50;;;;;;5053164;28;20082;-67
2023/09/12 11:06:52;;;;;;;48.38;25.40;;;14.30;91.30;;;;;;5050835;28;20028;-67
2023/09/12 11:09:23;;;;;;;44.72;26.38;;;14.20;91.70;;;;;;5049103;28;20456;-67
2023/09/12 11:11:57;;;;;;;42.00;25.27;;;14.00;92.10;;;;;;5054117;28;20120;-68
2023/09/12 11:14:26;;;;;;;38.20;24.40;;;14.00;92.50;;;;;;5049220;28;20037;-68
2023/09/12 11:17:19;;;;;;;40.13;23.67;;;13.90;92.50;;;;;;5053662;28;20024;-68
2023/09/12 11:19:54;;;;;;;38.03;22.40;;;14.00;92.20;;;;;;5039767;28;20048;-67
2023/09/12 11:22:28;;;;;;;38.35;21.35;;;14.00;92.20;;;;;;5050037;28;20040;-66
2023/09/12 11:24:57;;;;;;;35.17;22.27;;;13.90;92.20;;;;;;5045025;28;20128;-67
2023/09/12 11:27:30;;;;;;;43.45;25.10;;;13.80;92.50;;;;;;5054174;28;20028;-68
2023/09/12 11:30:08;;;;;;;44.05;24.40;;;13.70;92.70;;;;;;5039079;28;20032;-68
2023/09/12 11:32:37;;;;;;;48.80;26.30;;;13.60;93.00;;;;;;4997703;28;20408;-69
2023/09/12 11:35:10;;;;;;;41.55;25.60;;;13.60;92.90;;;;;;5048003;28;20041;-67
2023/09/12 11:37:38;;;;;;;39.75;26.15;;;13.50;92.80;;;;;;5033223;28;20044;-68
2023/09/12 11:40:14;;;;;;;47.05;27.17;;;13.50;92.90;;;;;;5034879;28;20127;-67
2023/09/12 11:42:42;;;;;;;45.53;27.30;;;13.40;93.20;;;;;;5040758;28;20040;-67
2023/09/12 11:45:15;;;;;;;42.15;25.85;;;13.40;93.20;;;;;;5045357;28;20060;-67
2023/09/12 11:47:43;;;;;;;45.90;26.67;;;13.30;93.20;;;;;;5029455;28;20035;-69
2023/09/12 11:50:27;;;;;;;45.40;25.70;;;13.30;93.40;;;;;;5023703;28;22922;-67
2023/09/12 11:53:07;;;;;;;43.97;24.73;;;13.20;93.30;;;;;;5024243;28;20087;-70
2023/09/12 11:55:58;;;;;;;51.30;25.45;;;13.20;93.50;;;;;;5007926;28;20536;-67
2023/09/12 11:58:28;;;;;;;44.47;25.35;;;13.10;93.60;;;;;;5015819;28;20382;-69
2023/09/12 12:00:58;;;;;;;47.95;24.90;;;13.10;93.60;;;;;;5029310;28;20486;-68
2023/09/12 12:03:28;;;;;;;43.35;22.52;;;13.00;93.70;;;;;;5016003;28;20243;-68
2023/09/12 12:05:57;;;;;;;47.78;24.13;;;13.00;94.00;;;;;;4994015;28;20346;-70
2023/09/12 12:08:25;;;;;;;41.63;23.95;;;13.20;94.30;;;;;;5035351;28;20448;-68
2023/09/12 12:10:53;;;;;;;43.63;23.52;;;13.20;94.00;;;;;;5038451;28;20025;-70
2023/09/12 12:13:22;;;;;;;39.20;21.58;;;13.10;93.90;;;;;;5028840;28;20033;-69
2023/09/12 12:15:50;;;;;;;41.65;22.25;;;13.10;94.10;;;;;;5047112;28;20419;-67
2023/09/12 12:18:19;;;;;;;33.38;21.30;;;12.90;94.00;;;;;;5031634;28;20110;-67
2023/09/12 12:20:46;;;;;;;39.17;20.75;;;12.80;94.20;;;;;;5013640;28;20021;-68
2023/09/12 12:23:14;;;;;;;37.42;21.13;;;12.80;94.30;;;;;;5034321;28;20040;-68
2023/09/12 12:25:43;;;;;;;42.92;22.38;;;12.70;94.30;;;;;;5036545;28;20740;-68
2023/09/12 12:28:12;;;;;;;43.75;23.05;;;12.80;94.60;;;;;;4994823;28;20327;-68
2023/09/12 12:30:42;;;;;;;42.17;22.90;;;12.90;94.80;;;;;;5002329;28;20037;-68
2023/09/12 12:33:12;;;;;;;44.75;23.90;;;12.80;94.90;;;;;;5008554;28;20095;-69
2023/09/12 12:35:40;;;;;;;40.03;23.30;;;12.90;95.10;;;;;;5025828;28;20037;-68
2023/09/12 12:38:08;;;;;;;45.90;25.73;;;12.80;95.30;;;;;;5032518;28;20025;-67
2023/09/12 12:40:42;;;;;;;44.00;26.13;;;12.80;95.40;;;;;;5016341;28;20024;-67
2023/09/12 12:43:22;;;;;;;51.10;25.55;;;12.90;95.40;;;;;;5042723;28;20036;-67
2023/09/12 12:45:58;;;;;;;53.28;26.02;;;13.00;95.30;;;;;;5041659;28;20016;-67